BGTL

Thule Air Base Airport

Qaanaaq, , Greenland
METAR BGTL 240256Z AUTO 10005KT 9999 CLR M09/M12 A2947 RMK AO2 SLP967 T10921125 57018 TSNO $
Observed Flight Rules
Sep-24 @ 02:56 UTC (2 hours ago) Visual Flight Rules
Wind Visibility Clouds
100° at 5 knots 10,000+ meters
  • Clear skies
Temperatures Readings
Current -9°C / 16°F
Dewpoint -13°C / 9°F
Humidity 73%
Altimeter 29.47" Hg
Pressure 996.7 hPa
Elevation 77
METAR BGTL 240256Z AUTO 10005KT 9999 CLR M09/M12 A2947 RMK AO2 SLP967 T10921125 57018 TSNO $
Observed Flight Rules
Sep-24 @ 02:56 UTC
(2 hours ago)
VFR
Wind Visibility
100° at 5 knots 10,000+ meters
Clouds
  • Clear skies
Temperature Dewpoint
-9°C / 16°F -13°C / 9°F
Humidity Altimeter Pressure
73% 29.47" Hg 996.7 hPa